Flight Track Log - Related Links

Times and Time Zones

All times are in EDT time to prevent confusion due to time zone crossing. See the ASQ4879 flight status page for this flight to view local times or setup timezone preferences in your user account.

Time Position Orientation Groundspeed Altitude Reporting Facility
EDT Latitude Longitude Course Direction KTS MPH feet Rate Location/Type
Fri 10:28:34 AM 30.7858 -88.2531 27° Northeast 228 262 4,700  Level Houston Center
Fri 10:29:36 AM 30.7883 -88.1503 88° East 270 311 7,000 2,341 Climbing Houston Center
Fri 10:30:37 AM 30.8300 -88.0683 59° Northeast 310 357 9,500 2,164 Climbing Houston Center
Fri 10:31:38 AM 30.8914 -87.9950 46° Northeast 319 367 11,400 1,659 Climbing Houston Center
Fri 10:32:40 AM 30.9581 -87.9119 47° Northeast 350 403 12,900 1,463 Climbing Houston Center
Fri 10:33:41 AM 31.0294 -87.8236 47° Northeast 372 428 14,400 1,463 Climbing Houston Center
Fri 10:34:43 AM 31.1036 -87.7333 46° Northeast 387 445 15,900 1,463 Climbing Houston Center
Fri 10:35:44 AM 31.1922 -87.6206 47° Northeast 393 452 17,400 1,122 Climbing Houston Center
Fri 10:36:46 AM 31.2711 -87.5233 46° Northeast 409 471 18,200 829 Climbing Houston Center
Fri 10:37:47 AM 31.3508 -87.4228 47° Northeast 422 486 19,100 927 Climbing Houston Center
Fri 10:38:49 AM 31.4319 -87.3217 47° Northeast 426 490 20,100 829 Climbing Houston Center
Fri 10:39:50 AM 31.5150 -87.2183 47° Northeast 436 502 20,800 443 Climbing Houston Center
Fri 10:40:51 AM 31.5986 -87.1119 47° Northeast 444 511 21,000 98 Climbing Houston Center
Fri 10:41:53 AM 31.6867 -87.0014 47° Northeast 460 529 21,000  Level Houston Center
Fri 10:42:54 AM 31.7750 -86.8889 47° Northeast 467 537 21,000  Level Houston Center
Fri 10:43:56 AM 31.8814 -86.7547 47° Northeast 468 539 21,000  Level Houston Center
Fri 10:44:58 AM 31.9758 -86.6414 45° Northeast 458 527 21,000  Level Atlanta Center
Fri 10:45:58 AM 32.0639 -86.5289 47° Northeast 468 539 21,000  Level Atlanta Center
Fri 10:46:58 AM 32.1517 -86.4183 47° Northeast 468 539 21,000  Level Atlanta Center
Fri 10:47:58 AM 32.2267 -86.3147 49° Northeast 458 527 21,000  Level Atlanta Center
Fri 10:48:58 AM 32.3100 -86.1989 50° Northeast 458 527 21,000  Level Atlanta Center
Fri 10:49:58 AM 32.3956 -86.0856 48° Northeast 451 519 21,000  Level Atlanta Center
Fri 10:50:58 AM 32.4767 -85.9767 49° Northeast 456 525 21,000  Level Atlanta Center
Fri 10:51:58 AM 32.5767 -85.8456 48° Northeast 461 531 21,000  Level Atlanta Center
Fri 10:52:58 AM 32.6617 -85.7314 48° Northeast 455 524 21,000  Level Atlanta Center
Fri 10:53:58 AM 32.7447 -85.6169 49° Northeast 455 524 21,000 -200 Level Atlanta Center
Fri 10:54:58 AM 32.8317 -85.5022 48° Northeast 455 524 20,600 -850 Descending Atlanta Center
Fri 10:55:58 AM 32.9144 -85.3900 49° Northeast 455 524 19,300 -1,300 Descending Atlanta Center
Fri 10:56:58 AM 32.9992 -85.2747 49° Northeast 455 524 18,000 -1,300 Descending Atlanta Center
Fri 10:57:58 AM 33.0731 -85.1742 49° Northeast 450 518 16,700 -1,650 Descending Atlanta Center
Fri 10:58:58 AM 33.1575 -85.0686 46° Northeast 437 503 14,700 -1,400 Descending Atlanta Center
Fri 10:59:58 AM 33.2333 -84.9678 48° Northeast 422 486 13,900 -900 Descending Atlanta Center
Fri 11:00:58 AM 33.3094 -84.8617 49° Northeast 413 475 12,900 -971 Descending Atlanta Center
Fri 11:01:43 AM 33.3833 -84.7667 47° Northeast 418 481 12,200 -581 Descending Atlanta TRACON
Fri 11:02:31 AM 33.4333 -84.7000 48° Northeast 408 470 12,000 -105 Descending Atlanta TRACON
Fri 11:03:37 AM 33.5167 -84.6000 45° Northeast 320 368 12,000 -100 Level Atlanta TRACON
Fri 11:04:31 AM 33.5500 -84.5167 64° Northeast 270 311 11,800 -1,000 Descending Atlanta TRACON
Fri 11:05:31 AM 33.5500 -84.4333 90° East 262 302 10,100 -1,700 Descending Atlanta TRACON
Fri 11:06:31 AM 33.5500 -84.3667 90° East 229 264 8,400 -2,000 Descending Atlanta TRACON
Fri 11:07:31 AM 33.5500 -84.2833 90° East 211 243 6,100 -2,300 Descending Atlanta TRACON
Fri 11:08:31 AM 33.5500 -84.2167 90° East 206 237 3,800 -1,579 Descending Atlanta TRACON
Fri 11:09:25 AM 33.5667 -84.1667 68° East 209 241 3,100 -421 Descending Atlanta TRACON
Fri 11:10:25 AM 33.6167 -84.1667 360° North 190 219 3,000 -50 Descending Atlanta TRACON
Fri 11:11:25 AM 33.6333 -84.2333 287° West 175 201 3,000  Level Atlanta TRACON
Fri 11:12:25 AM 33.6333 -84.2833 270° West 158 182 3,000 -250 Level Atlanta TRACON
Fri 11:13:25 AM 33.6333 -84.3333 270° West 151 174 2,500 -632 Descending Atlanta TRACON
Fri 11:14:19 AM 33.6333 -84.3667 270° West 140 161 1,800 -778 Descending Atlanta TRACON
Fri 11:16:00 AM 33.6333 -84.4167 292° West  Level FlightAware Approximate
Fri 11:23:00 AM 33.6367 -84.4279 292° West  Level Estimated
Fri 11:24:00 AM 33.6367 -84.4279 292° West  Level Estimated

Login

Don't have an account? Register now (free) for customized features, flight alerts, and more!